RJFO

Oita Airport

Airport
ICAO code
RJFO
IATA Code
OIT
Summary
ICAO Region
APAC
ICAO Territory
Location

Kunisaki, Oita Prefecture, Kyushu

Serving
Oita
Elevation
17 ft
Coordinates
33° 28' 35" N , 131° 43' 58" E
KCC
Metar
Observation
RJFO 030700Z 06005KT 9999 FEW030 09/02 Q1018
Station
Oita Airport
Date/Time
2023-02-03 07:00:00
Wind direction
60°
Wind speed
05 kts
Lowest cloud amount
few clouds
Temperature
9°C
Dew point
2°C
Humidity
61%
QNH
1018 hPa
Weather condition
n/a

Airport in Kunisaki, Ōita, Japan, 30km northeast of Ōita.

Climatology

Humid Sub-tropical climate (Köppen climate classification Cfa)

Runways

Designator Length Width Surface Rops
1/19 2999 46 ASP Yes/Yes

Airport map

Aerial View

SKYbrary Partners:

Safety knowledge contributed by: